createdAt,value
2018-08-30T00:50:21.365Z,82.52
2018-08-30T00:55:24.698Z,82.24
2018-08-30T02:32:30.856Z,77.63
2018-08-30T02:37:34.195Z,77.40
2018-08-30T02:42:38.293Z,77.81
2018-08-30T03:50:58.090Z,80.12
2018-08-30T03:56:01.433Z,81.16
2018-08-30T04:35:35.295Z,83.77
2018-08-30T04:40:38.629Z,83.02
2018-08-30T04:45:42.731Z,82.94
2018-08-30T04:50:46.059Z,83.89
2018-08-30T05:01:35.672Z,83.90
2018-08-30T05:06:38.983Z,83.66
2018-08-30T05:11:42.318Z,83.29
2018-08-30T05:16:45.647Z,83.67
2018-08-30T05:21:49.736Z,83.07
2018-08-30T05:26:53.070Z,82.17
2018-08-30T05:31:56.400Z,82.84
2018-08-30T05:37:00.499Z,85.71
2018-08-30T05:42:03.830Z,95.47
2018-08-30T05:47:07.164Z,96.20
2018-08-30T05:52:11.258Z,87.36
2018-08-30T05:57:14.586Z,87.33
2018-08-30T06:02:17.918Z,87.31
2018-08-30T06:07:22.064Z,88.56
2018-08-30T06:12:25.363Z,87.57
2018-08-30T06:17:29.477Z,87.92
2018-08-30T06:22:32.806Z,92.17
2018-08-30T06:27:36.900Z,89.79
2018-08-30T07:01:25.978Z,88.19
2018-08-30T07:06:30.078Z,89.03
2018-08-30T07:11:33.419Z,88.58
2018-08-30T08:02:38.315Z,86.79
2018-08-30T08:07:41.646Z,86.67
2018-08-30T08:12:45.034Z,86.22
2018-08-30T09:03:50.387Z,80.91
2018-08-30T09:08:53.714Z,81.03
2018-08-30T09:13:57.818Z,80.90
2018-08-30T10:05:01.578Z,72.90
2018-08-30T10:10:04.923Z,71.87
2018-08-30T10:15:08.250Z,73.10
2018-08-30T11:00:53.953Z,70.16
2018-08-30T11:05:57.317Z,67.25
2018-08-30T11:11:00.630Z,68.57
2018-08-30T12:02:05.499Z,65.50
2018-08-30T12:07:08.841Z,65.16
2018-08-30T12:12:12.950Z,65.94
2018-08-30T13:03:17.574Z,65.21
2018-08-30T13:08:20.923Z,65.07
2018-08-30T13:13:24.283Z,64.93
2018-08-30T14:04:28.378Z,62.64
2018-08-30T14:09:32.190Z,59.93
2018-08-30T14:14:35.513Z,59.56
2018-08-30T14:48:24.722Z,60.66
2018-08-30T14:53:28.918Z,60.85
2018-08-30T14:58:33.015Z,60.79
2018-08-30T15:32:22.375Z,60.20
2018-08-30T15:37:25.710Z,60.25
2018-08-30T15:42:29.046Z,60.39
2018-08-30T15:47:32.395Z,60.59
2018-08-30T15:52:35.755Z,60.71
2018-08-30T15:57:39.095Z,60.63
2018-08-30T16:02:42.450Z,60.90
2018-08-30T16:07:45.781Z,61.17
2018-08-30T16:12:49.121Z,61.13
2018-08-30T16:17:52.457Z,61.36
2018-08-30T16:22:55.821Z,61.47
2018-08-30T16:27:59.164Z,62.47
2018-08-30T16:33:02.579Z,61.76
2018-08-30T16:38:05.966Z,62.18
2018-08-30T16:43:09.291Z,63.75
2018-08-30T16:48:12.635Z,64.97
2018-08-30T16:53:16.811Z,64.75
2018-08-30T16:58:20.104Z,65.23
2018-08-30T17:03:23.442Z,65.26
2018-08-30T17:08:27.213Z,65.44
2018-08-30T17:13:30.583Z,65.82
2018-08-30T17:18:33.914Z,65.62
2018-08-30T17:23:37.279Z,65.89
2018-08-30T17:28:40.627Z,66.06
2018-08-30T17:33:44.196Z,66.24
2018-08-30T17:38:47.687Z,66.61
2018-08-30T17:43:51.837Z,66.72
2018-08-30T17:48:55.939Z,67.30
2018-08-30T17:53:59.299Z,67.47
2018-08-30T17:59:02.656Z,67.52
2018-08-30T18:04:05.983Z,67.88
2018-08-30T18:09:09.321Z,68.39
2018-08-30T18:14:13.422Z,68.44
2018-08-30T18:19:16.742Z,68.82
2018-08-30T18:24:20.137Z,69.09
2018-08-30T18:29:23.432Z,69.62
2018-08-30T18:34:26.764Z,69.64
2018-08-30T18:39:30.103Z,69.94
2018-08-30T18:44:33.584Z,70.11
2018-08-30T18:49:37.171Z,70.29
2018-08-30T18:54:41.111Z,70.68
2018-08-30T18:59:46.569Z,70.64
2018-08-30T19:04:50.909Z,70.77
2018-08-30T19:09:56.001Z,71.01
2018-08-30T19:14:59.676Z,71.03
2018-08-30T19:20:03.250Z,71.22
2018-08-30T19:25:06.864Z,71.20
2018-08-30T19:30:11.316Z,71.45
2018-08-30T19:35:17.126Z,71.47
2018-08-30T19:40:22.471Z,71.64
2018-08-30T19:45:26.841Z,71.77
2018-08-30T19:50:30.477Z,71.81
2018-08-30T19:55:33.989Z,71.93
2018-08-30T20:00:37.596Z,72.06
2018-08-30T20:05:46.078Z,72.25
2018-08-30T20:16:18.935Z,73.04
2018-08-30T20:21:22.279Z,72.57
2018-08-30T20:26:26.382Z,72.39
2018-08-30T20:31:29.718Z,72.43
2018-08-30T20:36:33.819Z,72.32
2018-08-30T20:41:37.168Z,72.37
2018-08-30T20:46:46.815Z,72.48
2018-08-30T20:51:50.122Z,72.42
2018-08-30T20:56:53.447Z,72.56
2018-08-30T21:01:57.577Z,72.80
2018-08-30T21:07:01.674Z,72.69
2018-08-30T21:12:05.011Z,72.65
2018-08-30T21:17:08.344Z,72.90
2018-08-30T21:22:12.451Z,72.94
2018-08-30T21:27:15.781Z,72.94
2018-08-30T21:32:19.891Z,72.77
2018-08-30T21:37:23.223Z,72.78
2018-08-30T21:42:26.565Z,72.77
2018-08-30T21:47:29.898Z,72.82
2018-08-30T21:52:33.229Z,73.33
2018-08-30T21:57:36.555Z,73.35
2018-08-30T22:02:39.960Z,73.49
2018-08-30T22:07:43.267Z,73.71
2018-08-30T22:12:46.625Z,73.71
2018-08-30T22:17:49.962Z,73.85
2018-08-30T22:22:53.289Z,73.83
2018-08-30T22:27:56.626Z,73.95
2018-08-30T22:32:59.950Z,74.04
2018-08-30T22:38:03.273Z,74.21
2018-08-30T22:43:07.383Z,74.18
2018-08-30T22:48:10.730Z,74.03
2018-08-30T22:53:14.058Z,74.11
2018-08-30T22:58:17.381Z,74.21
2018-08-30T23:03:20.698Z,74.17
2018-08-30T23:08:24.018Z,74.36
2018-08-30T23:13:27.495Z,74.50
